Time;durP1;ratioP1;P1;durP2;ratioP2;P2;SDS_P1;SDS_P2;PMS_P1;PMS_P2;Temp;Humidity;BMP_temperature;BMP_pressure;BME280_temperature;BME280_humidity;BME280_pressure;Samples;Min_cycle;Max_cycle;Signal;HPM_P1;HPM_P2
2023/03/04 00:02:26;;;;;;;12.60;5.80;;;;;;;;;;8419536;28;20069;-78
2023/03/04 00:06:29;;;;;;;26.58;11.13;;;;;;;;;;8432415;28;20040;-78
2023/03/04 00:10:32;;;;;;;29.20;12.02;;;;;;;;;;8431934;28;20048;-78
2023/03/04 00:14:35;;;;;;;21.73;9.18;;;;;;;;;;8432017;28;20085;-78
2023/03/04 00:18:39;;;;;;;21.10;8.93;;;;;;;;;;8405538;28;20055;-79
2023/03/04 00:22:42;;;;;;;32.00;12.85;;;;;;;;;;8431930;28;20052;-77
2023/03/04 00:26:45;;;;;;;29.95;12.90;;;;;;;;;;8432156;28;20565;-80
2023/03/04 00:30:48;;;;;;;27.60;11.07;;;;;;;;;;8431569;28;20044;-79
2023/03/04 00:34:52;;;;;;;31.20;13.52;;;;;;;;;;8424820;28;20082;-77
2023/03/04 00:38:55;;;;;;;30.73;12.82;;;;;;;;;;8425147;28;20480;-77
2023/03/04 00:42:58;;;;;;;28.40;11.93;;;;;;;;;;8431330;28;20118;-79
2023/03/04 00:47:01;;;;;;;31.38;13.68;;;;;;;;;;8430962;28;20048;-79
2023/03/04 00:51:06;;;;;;;32.03;11.93;;;;;;;;;;8364030;28;20103;-78
2023/03/04 00:55:09;;;;;;;32.08;11.68;;;;;;;;;;8364559;28;20086;-78
2023/03/04 00:59:12;;;;;;;30.48;12.52;;;;;;;;;;8337425;28;20048;-77
2023/03/04 01:03:15;;;;;;;22.33;8.77;;;;;;;;;;8364327;28;20049;-79
2023/03/04 01:07:19;;;;;;;28.25;11.57;;;;;;;;;;8364012;28;20049;-79
2023/03/04 01:11:22;;;;;;;44.70;15.00;;;;;;;;;;8363680;28;20132;-80
2023/03/04 01:15:25;;;;;;;32.47;11.98;;;;;;;;;;8350677;28;20043;-78
2023/03/04 01:19:28;;;;;;;22.65;7.35;;;;;;;;;;8363538;28;20140;-80
2023/03/04 01:23:32;;;;;;;35.03;14.38;;;;;;;;;;8364077;28;20469;-77
2023/03/04 01:27:35;;;;;;;12.15;5.35;;;;;;;;;;8363159;28;20044;-76
2023/03/04 01:31:38;;;;;;;36.78;14.32;;;;;;;;;;8357423;28;20046;-81
2023/03/04 01:35:41;;;;;;;26.20;11.10;;;;;;;;;;8342838;28;20112;-80
2023/03/04 01:39:45;;;;;;;30.15;11.35;;;;;;;;;;8362900;28;20051;-79
2023/03/04 01:43:48;;;;;;;25.10;9.63;;;;;;;;;;8362824;28;20714;-78
2023/03/04 01:47:51;;;;;;;34.90;12.77;;;;;;;;;;8367780;28;20052;-78
2023/03/04 01:51:55;;;;;;;31.02;11.48;;;;;;;;;;8429231;28;20052;-80
2023/03/04 01:56:04;;;;;;;38.80;13.98;;;;;;;;;;8423709;28;20048;-78
2023/03/04 02:00:23;;;;;;;31.65;13.25;;;;;;;;;;8423392;28;20483;-78
2023/03/04 02:04:28;;;;;;;33.20;11.63;;;;;;;;;;8407417;28;20097;-79
2023/03/04 02:08:31;;;;;;;41.00;14.40;;;;;;;;;;8428929;28;20523;-79
2023/03/04 02:12:35;;;;;;;21.45;9.00;;;;;;;;;;8429608;28;20044;-77
2023/03/04 02:16:39;;;;;;;35.88;14.00;;;;;;;;;;8429395;28;20484;-79
2023/03/04 02:20:48;;;;;;;29.58;12.85;;;;;;;;;;8429220;28;20044;-79
2023/03/04 02:24:57;;;;;;;34.42;13.13;;;;;;;;;;8403831;28;20119;-78
2023/03/04 02:29:03;;;;;;;26.83;10.38;;;;;;;;;;8419796;28;20070;-78
2023/03/04 02:33:06;;;;;;;22.92;10.88;;;;;;;;;;8424789;28;20044;-78
2023/03/04 02:37:11;;;;;;;23.88;8.82;;;;;;;;;;8409517;28;20055;-81
2023/03/04 02:41:16;;;;;;;32.20;12.35;;;;;;;;;;8415341;28;20385;-78
2023/03/04 02:45:37;;;;;;;13.95;5.35;;;;;;;;;;8428914;28;20058;-78
2023/03/04 02:49:41;;;;;;;35.65;14.02;;;;;;;;;;8426088;28;20396;-80
2023/03/04 02:53:44;;;;;;;28.67;11.35;;;;;;;;;;8428969;28;20446;-79
2023/03/04 02:57:47;;;;;;;26.95;11.25;;;;;;;;;;8428703;28;20048;-79
2023/03/04 03:01:51;;;;;;;33.38;13.48;;;;;;;;;;8414791;28;20048;-78
2023/03/04 03:05:54;;;;;;;15.55;6.72;;;;;;;;;;8431767;28;20062;-80
2023/03/04 03:09:57;;;;;;;34.40;13.30;;;;;;;;;;8434937;28;20052;-79
2023/03/04 03:14:00;;;;;;;21.55;8.90;;;;;;;;;;8434619;28;20036;-79
2023/03/04 03:18:04;;;;;;;22.85;7.07;;;;;;;;;;8434397;28;20047;-79
2023/03/04 03:22:07;;;;;;;27.52;11.50;;;;;;;;;;8434983;28;20066;-80
2023/03/04 03:26:10;;;;;;;27.35;10.75;;;;;;;;;;8433862;28;20406;-77
2023/03/04 03:30:15;;;;;;;14.43;6.57;;;;;;;;;;8434401;28;20410;-82
2023/03/04 03:34:19;;;;;;;17.85;7.28;;;;;;;;;;8433752;28;20406;-78
2023/03/04 03:38:22;;;;;;;21.70;9.88;;;;;;;;;;8434305;28;20399;-80
2023/03/04 03:42:25;;;;;;;14.52;6.53;;;;;;;;;;8419628;28;20453;-82
2023/03/04 03:46:28;;;;;;;21.45;9.65;;;;;;;;;;8420277;28;20055;-81
2023/03/04 03:50:33;;;;;;;26.80;10.65;;;;;;;;;;8410277;28;20632;-79
2023/03/04 03:54:35;;;;;;;22.85;9.50;;;;;;;;;;8421193;28;20127;-79
2023/03/04 03:58:38;;;;;;;23.92;9.80;;;;;;;;;;8433374;28;20040;-77
2023/03/04 04:02:41;;;;;;;13.60;5.70;;;;;;;;;;8433236;28;20384;-77
2023/03/04 04:06:45;;;;;;;24.23;11.35;;;;;;;;;;8409009;28;20037;-79
2023/03/04 04:10:48;;;;;;;24.90;11.82;;;;;;;;;;8433026;28;20048;-78
2023/03/04 04:14:51;;;;;;;18.52;7.75;;;;;;;;;;8428382;28;20054;-78
2023/03/04 04:18:54;;;;;;;17.42;9.40;;;;;;;;;;8417083;28;20043;-80
2023/03/04 04:22:58;;;;;;;27.20;10.63;;;;;;;;;;8414943;28;20063;-79
2023/03/04 04:27:01;;;;;;;28.15;10.50;;;;;;;;;;8422824;28;20052;-78
2023/03/04 04:31:07;;;;;;;29.75;12.13;;;;;;;;;;8431930;28;20040;-85
2023/03/04 04:35:11;;;;;;;29.98;11.70;;;;;;;;;;8432049;28;20048;-77
2023/03/04 04:39:15;;;;;;;29.70;12.13;;;;;;;;;;8415317;28;20041;-80
2023/03/04 04:43:18;;;;;;;29.67;11.65;;;;;;;;;;8410779;28;20048;-79
2023/03/04 04:47:21;;;;;;;25.50;8.65;;;;;;;;;;8411913;28;20051;-81
2023/03/04 04:51:24;;;;;;;26.85;11.40;;;;;;;;;;8421339;28;20059;-80
2023/03/04 04:55:28;;;;;;;31.50;12.32;;;;;;;;;;8425757;28;20097;-80
2023/03/04 04:59:31;;;;;;;26.27;11.98;;;;;;;;;;8429390;28;20044;-78
2023/03/04 05:03:34;;;;;;;26.10;9.85;;;;;;;;;;8399819;28;20505;-80
2023/03/04 05:07:38;;;;;;;25.75;10.82;;;;;;;;;;8423228;28;20104;-80
2023/03/04 05:11:42;;;;;;;21.95;10.48;;;;;;;;;;8423585;28;20043;-81
2023/03/04 05:15:45;;;;;;;31.17;14.18;;;;;;;;;;8413593;28;20052;-78
2023/03/04 05:19:48;;;;;;;9.60;4.85;;;;;;;;;;8403785;28;20032;-82
2023/03/04 05:23:51;;;;;;;25.17;11.23;;;;;;;;;;8418091;28;20123;-80
2023/03/04 05:27:55;;;;;;;30.35;11.70;;;;;;;;;;8418736;28;20040;-80
2023/03/04 05:31:58;;;;;;;28.58;10.77;;;;;;;;;;8420783;28;20391;-80
2023/03/04 05:36:01;;;;;;;27.40;10.65;;;;;;;;;;8414529;28;20048;-80
2023/03/04 05:40:05;;;;;;;24.38;10.52;;;;;;;;;;8422765;28;20043;-83
2023/03/04 05:44:10;;;;;;;21.23;8.25;;;;;;;;;;8425761;28;20506;-78
2023/03/04 05:48:13;;;;;;;21.80;9.65;;;;;;;;;;8414594;28;20121;-80
2023/03/04 05:52:16;;;;;;;27.00;12.20;;;;;;;;;;8424831;28;20048;-78
2023/03/04 05:56:20;;;;;;;30.60;12.35;;;;;;;;;;8421752;28;20553;-80
2023/03/04 06:00:25;;;;;;;24.88;10.00;;;;;;;;;;8424977;28;20052;-83
2023/03/04 06:04:28;;;;;;;24.05;11.43;;;;;;;;;;8429666;28;20044;-79
2023/03/04 06:08:31;;;;;;;17.20;8.50;;;;;;;;;;8428645;28;20055;-80
2023/03/04 06:12:34;;;;;;;21.55;8.00;;;;;;;;;;8429452;28;20510;-79
2023/03/04 06:16:38;;;;;;;24.73;11.82;;;;;;;;;;8428819;28;20040;-79
2023/03/04 06:20:44;;;;;;;42.35;15.75;;;;;;;;;;8428619;28;20413;-78
2023/03/04 06:24:47;;;;;;;17.70;7.72;;;;;;;;;;8429044;28;20048;-79
2023/03/04 06:28:49;;;;;;;29.92;13.02;;;;;;;;;;8429165;28;20052;-80
2023/03/04 06:32:54;;;;;;;16.77;6.18;;;;;;;;;;8428683;28;20047;-79
2023/03/04 06:36:57;;;;;;;30.73;12.55;;;;;;;;;;8415089;28;20047;-78
2023/03/04 06:41:08;;;;;;;8.93;5.25;;;;;;;;;;8410468;28;20043;-78
2023/03/04 06:45:12;;;;;;;18.15;8.75;;;;;;;;;;8430029;28;20574;-79
2023/03/04 06:49:16;;;;;;;21.83;8.70;;;;;;;;;;8435224;28;20069;-84
2023/03/04 06:53:19;;;;;;;21.65;10.60;;;;;;;;;;8435590;28;20048;-79
2023/03/04 06:57:22;;;;;;;28.10;11.00;;;;;;;;;;8434959;28;20127;-81
2023/03/04 07:01:27;;;;;;;26.00;9.60;;;;;;;;;;8434452;28;20052;-79
2023/03/04 07:05:31;;;;;;;14.55;5.50;;;;;;;;;;8434678;28;20093;-79
2023/03/04 07:09:34;;;;;;;23.40;10.10;;;;;;;;;;8434772;28;20048;-79
2023/03/04 07:13:38;;;;;;;25.25;11.93;;;;;;;;;;8434725;28;20040;-79
2023/03/04 07:17:41;;;;;;;24.52;10.07;;;;;;;;;;8406729;28;20044;-79
2023/03/04 07:21:45;;;;;;;32.25;11.23;;;;;;;;;;8419068;28;20395;-77
2023/03/04 07:25:49;;;;;;;15.13;6.47;;;;;;;;;;8434709;28;20082;-79
2023/03/04 07:29:52;;;;;;;25.45;10.57;;;;;;;;;;8433920;28;20050;-78
2023/03/04 07:33:57;;;;;;;30.20;13.18;;;;;;;;;;8434356;28;20737;-79
2023/03/04 07:38:01;;;;;;;28.02;12.75;;;;;;;;;;8430453;28;20044;-79
2023/03/04 07:42:04;;;;;;;31.77;13.27;;;;;;;;;;8420074;28;20054;-79
2023/03/04 07:46:07;;;;;;;26.40;11.35;;;;;;;;;;8432940;28;20044;-78
2023/03/04 07:50:11;;;;;;;30.55;13.88;;;;;;;;;;8432590;28;20059;-77
2023/03/04 07:54:18;;;;;;;27.50;12.57;;;;;;;;;;8431796;28;20044;-79
2023/03/04 07:58:22;;;;;;;27.05;12.50;;;;;;;;;;8433074;28;20108;-79
2023/03/04 08:02:25;;;;;;;13.48;5.65;;;;;;;;;;8432424;28;20051;-77
2023/03/04 08:06:29;;;;;;;33.20;13.50;;;;;;;;;;8432892;28;20048;-78
2023/03/04 08:10:34;;;;;;;26.10;11.13;;;;;;;;;;8430958;28;20051;-79
2023/03/04 08:14:37;;;;;;;33.03;13.30;;;;;;;;;;8432584;28;20050;-78
2023/03/04 08:18:40;;;;;;;21.70;7.88;;;;;;;;;;8431891;28;20044;-80
2023/03/04 08:22:42;;;;;;;19.52;8.20;;;;;;;;;;8403818;28;20048;-78
2023/03/04 08:26:49;;;;;;;32.25;12.88;;;;;;;;;;8414587;28;20055;-79
2023/03/04 08:30:55;;;;;;;35.90;14.98;;;;;;;;;;8411861;28;20126;-78
2023/03/04 08:35:01;;;;;;;32.58;12.35;;;;;;;;;;8430101;28;20040;-78
2023/03/04 08:39:04;;;;;;;15.52;6.13;;;;;;;;;;8430611;28;20506;-79
2023/03/04 08:43:09;;;;;;;24.48;11.20;;;;;;;;;;8430467;28;20048;-80
2023/03/04 08:47:12;;;;;;;23.73;9.70;;;;;;;;;;8430415;28;20083;-78
2023/03/04 08:51:15;;;;;;;26.75;11.23;;;;;;;;;;8431518;28;20044;-79
2023/03/04 08:55:19;;;;;;;24.40;11.07;;;;;;;;;;8431195;28;20502;-79
2023/03/04 08:59:23;;;;;;;25.80;11.82;;;;;;;;;;8431314;28;20476;-79
2023/03/04 09:03:26;;;;;;;32.17;13.23;;;;;;;;;;8430495;28;20048;-79
2023/03/04 09:07:29;;;;;;;32.38;12.00;;;;;;;;;;8430755;28;20048;-79
2023/03/04 09:11:32;;;;;;;26.80;10.38;;;;;;;;;;8430631;28;20109;-80
2023/03/04 09:15:37;;;;;;;27.67;11.07;;;;;;;;;;8430679;28;20052;-78
2023/03/04 09:19:40;;;;;;;32.53;13.88;;;;;;;;;;8430374;28;20101;-78
2023/03/04 09:23:43;;;;;;;27.70;10.10;;;;;;;;;;8430203;28;20044;-79
2023/03/04 09:27:46;;;;;;;28.45;10.68;;;;;;;;;;8430223;28;20116;-79
2023/03/04 09:31:50;;;;;;;32.85;13.27;;;;;;;;;;8416057;28;20049;-79
2023/03/04 09:35:53;;;;;;;18.52;7.35;;;;;;;;;;8392606;28;20040;-83
2023/03/04 09:39:56;;;;;;;29.02;11.48;;;;;;;;;;8422129;28;20067;-80
2023/03/04 09:43:59;;;;;;;25.90;11.10;;;;;;;;;;8396888;28;20052;-81
2023/03/04 09:48:03;;;;;;;33.80;14.23;;;;;;;;;;8377697;28;20071;-82
2023/03/04 09:52:19;;;;;;;28.50;12.13;;;;;;;;;;8394978;28;20054;-82
2023/03/04 09:56:26;;;;;;;22.48;9.80;;;;;;;;;;8391404;28;20480;-78
2023/03/04 10:00:38;;;;;;;30.00;13.80;;;;;;;;;;8401379;28;20048;-79
2023/03/04 10:04:49;;;;;;;29.37;13.73;;;;;;;;;;8389454;28;20060;-86
2023/03/04 10:08:57;;;;;;;28.92;12.45;;;;;;;;;;8383313;28;20043;-80
2023/03/04 10:13:03;;;;;;;22.33;7.93;;;;;;;;;;8388743;28;20052;-79
2023/03/04 10:17:14;;;;;;;33.70;13.70;;;;;;;;;;8387358;28;20155;-81
2023/03/04 10:21:24;;;;;;;36.25;14.82;;;;;;;;;;8383735;28;20054;-78
2023/03/04 10:25:29;;;;;;;23.13;9.35;;;;;;;;;;8385756;28;20155;-79
2023/03/04 10:29:34;;;;;;;24.45;9.15;;;;;;;;;;8388480;28;20135;-78
2023/03/04 10:33:39;;;;;;;29.75;11.05;;;;;;;;;;8391104;28;20051;-79
2023/03/04 10:37:50;;;;;;;32.03;11.85;;;;;;;;;;8382277;28;20163;-79
2023/03/04 10:42:01;;;;;;;39.17;14.23;;;;;;;;;;8378618;28;20040;-80
2023/03/04 10:46:05;;;;;;;38.17;14.95;;;;;;;;;;8373416;28;20396;-79
2023/03/04 10:50:23;;;;;;;30.58;13.43;;;;;;;;;;8373661;28;20135;-80
2023/03/04 10:54:31;;;;;;;29.60;10.98;;;;;;;;;;8386226;28;20492;-81
2023/03/04 10:58:34;;;;;;;28.98;14.55;;;;;;;;;;8389845;28;20045;-80
2023/03/04 11:02:38;;;;;;;23.13;10.27;;;;;;;;;;8390506;28;20059;-81
2023/03/04 11:06:41;;;;;;;23.48;10.30;;;;;;;;;;8384591;28;20490;-79
2023/03/04 11:10:49;;;;;;;22.25;9.43;;;;;;;;;;8391394;28;20045;-81
2023/03/04 11:14:52;;;;;;;31.90;13.77;;;;;;;;;;8376917;28;20095;-78
2023/03/04 11:19:03;;;;;;;27.90;12.32;;;;;;;;;;8391064;28;20046;-79
2023/03/04 11:23:18;;;;;;;20.50;9.25;;;;;;;;;;8385442;28;20119;-80
2023/03/04 11:27:36;;;;;;;27.50;12.18;;;;;;;;;;8406869;28;20082;-79
2023/03/04 11:31:47;;;;;;;14.95;8.52;;;;;;;;;;8396786;28;20480;-80
2023/03/04 11:35:58;;;;;;;28.23;11.27;;;;;;;;;;8378654;28;20052;-79
2023/03/04 11:40:06;;;;;;;30.20;11.93;;;;;;;;;;8397465;28;20048;-79
2023/03/04 11:44:14;;;;;;;19.23;9.77;;;;;;;;;;8397135;28;20055;-81
2023/03/04 11:48:24;;;;;;;32.92;12.65;;;;;;;;;;8397221;28;20079;-80
2023/03/04 11:52:42;;;;;;;25.90;13.10;;;;;;;;;;8391274;28;20478;-81
2023/03/04 11:56:48;;;;;;;27.40;12.55;;;;;;;;;;8389411;28;20050;-80
2023/03/04 12:01:06;;;;;;;29.63;13.45;;;;;;;;;;8390211;28;20131;-80
2023/03/04 12:05:29;;;;;;;29.77;13.50;;;;;;;;;;8379469;28;20690;-77
2023/03/04 12:09:36;;;;;;;;;;;;;;;;;;8382427;28;20045;-79
2023/03/04 12:14:16;;;;;;;15.70;8.30;;;;;;;;;;8392147;28;20376;-80
2023/03/04 12:18:34;;;;;;;18.13;7.40;;;;;;;;;;8386699;28;20082;-81
2023/03/04 12:22:44;;;;;;;24.50;10.60;;;;;;;;;;8385819;28;20063;-82
2023/03/04 12:26:51;;;;;;;30.42;13.02;;;;;;;;;;8371074;28;20048;-82
2023/03/04 12:31:16;;;;;;;22.45;10.73;;;;;;;;;;8385734;28;20052;-79
2023/03/04 12:35:36;;;;;;;27.05;12.10;;;;;;;;;;8384606;28;20378;-85
2023/03/04 12:39:41;;;;;;;23.70;10.52;;;;;;;;;;8380200;28;20048;-80
2023/03/04 12:43:56;;;;;;;24.35;10.50;;;;;;;;;;8389305;28;20056;-79
2023/03/04 12:48:06;;;;;;;17.10;8.40;;;;;;;;;;8375043;28;20057;-80
2023/03/04 12:52:19;;;;;;;26.25;9.50;;;;;;;;;;8383129;28;20056;-79
2023/03/04 12:56:26;;;;;;;22.85;10.93;;;;;;;;;;8385801;28;20419;-78
2023/03/04 13:00:40;;;;;;;26.05;11.43;;;;;;;;;;8382796;28;20404;-80
2023/03/04 13:04:53;;;;;;;31.13;12.30;;;;;;;;;;8386133;28;20060;-82
2023/03/04 13:09:11;;;;;;;16.70;5.25;;;;;;;;;;8379752;28;20053;-85
2023/03/04 13:13:40;;;;;;;26.08;11.52;;;;;;;;;;8370721;28;20519;-81
2023/03/04 13:17:45;;;;;;;13.10;5.65;;;;;;;;;;8371861;28;20455;-80
2023/03/04 13:21:53;;;;;;;17.65;7.68;;;;;;;;;;8383836;28;20135;-80
2023/03/04 13:26:20;;;;;;;23.55;10.45;;;;;;;;;;8390592;28;20045;-82
2023/03/04 13:30:44;;;;;;;12.50;5.22;;;;;;;;;;8386671;28;20049;-81
2023/03/04 13:34:54;;;;;;;21.42;9.35;;;;;;;;;;8387931;28;20052;-80
2023/03/04 13:39:01;;;;;;;20.83;9.80;;;;;;;;;;8370848;28;20099;-83
2023/03/04 13:43:39;;;;;;;20.83;9.45;;;;;;;;;;8388728;28;20157;-81
2023/03/04 13:47:46;;;;;;;23.05;11.07;;;;;;;;;;8340889;28;20057;-83
2023/03/04 13:51:49;;;;;;;26.02;11.55;;;;;;;;;;8379507;28;20056;-81
2023/03/04 13:56:30;;;;;;;27.42;10.77;;;;;;;;;;8401831;28;20051;-80
2023/03/04 14:00:36;;;;;;;18.25;10.68;;;;;;;;;;8384455;28;21319;-80
2023/03/04 14:04:41;;;;;;;28.27;10.82;;;;;;;;;;8376576;28;20562;-80
2023/03/04 14:08:45;;;;;;;22.85;10.82;;;;;;;;;;8373583;28;20044;-80
2023/03/04 14:12:52;;;;;;;21.40;11.15;;;;;;;;;;8369504;28;20049;-80
2023/03/04 14:16:59;;;;;;;22.83;9.52;;;;;;;;;;8378791;28;20044;-81
2023/03/04 14:21:02;;;;;;;23.95;10.93;;;;;;;;;;8380467;28;20041;-80
2023/03/04 14:25:08;;;;;;;23.20;10.65;;;;;;;;;;8385045;28;20044;-81
2023/03/04 14:29:25;;;;;;;28.55;12.50;;;;;;;;;;8383083;28;20048;-80
2023/03/04 14:33:31;;;;;;;25.52;11.43;;;;;;;;;;8372126;28;20135;-81
2023/03/04 14:37:43;;;;;;;19.65;8.18;;;;;;;;;;8385059;28;20114;-82
2023/03/04 14:41:49;;;;;;;33.58;14.40;;;;;;;;;;8383946;28;20127;-83
2023/03/04 14:45:54;;;;;;;25.95;12.23;;;;;;;;;;8389580;28;20044;-82
2023/03/04 14:49:59;;;;;;;25.42;12.05;;;;;;;;;;8376458;28;20052;-79
2023/03/04 14:54:07;;;;;;;29.42;11.60;;;;;;;;;;8376811;28;20052;-80
2023/03/04 14:58:21;;;;;;;27.15;12.73;;;;;;;;;;8375340;28;20107;-81
2023/03/04 15:02:30;;;;;;;23.85;11.15;;;;;;;;;;8379397;28;20056;-82
2023/03/04 15:06:48;;;;;;;26.73;11.15;;;;;;;;;;8394978;28;20424;-81
2023/03/04 15:10:56;;;;;;;25.65;12.20;;;;;;;;;;8394886;28;20114;-81
2023/03/04 15:15:03;;;;;;;23.65;9.32;;;;;;;;;;8401242;28;20048;-80
2023/03/04 15:19:25;;;;;;;23.05;11.00;;;;;;;;;;8380944;28;20044;-80
2023/03/04 15:23:31;;;;;;;39.63;20.03;;;;;;;;;;8388080;28;20758;-80
2023/03/04 15:27:35;;;;;;;30.38;12.75;;;;;;;;;;8383497;28;20130;-83
2023/03/04 15:31:38;;;;;;;20.33;10.23;;;;;;;;;;8383132;28;20048;-82
2023/03/04 15:35:47;;;;;;;18.17;9.48;;;;;;;;;;8383709;28;20578;-81
2023/03/04 15:39:52;;;;;;;22.40;10.43;;;;;;;;;;8395238;28;20102;-81
2023/03/04 15:43:56;;;;;;;16.33;7.20;;;;;;;;;;8402754;28;20055;-80
2023/03/04 15:48:03;;;;;;;19.02;8.80;;;;;;;;;;8390766;28;20094;-80
2023/03/04 15:52:12;;;;;;;20.73;11.07;;;;;;;;;;8376380;28;20496;-80
2023/03/04 15:56:20;;;;;;;18.20;8.60;;;;;;;;;;8381023;28;20040;-87
2023/03/04 16:00:25;;;;;;;18.45;7.20;;;;;;;;;;8395545;28;20052;-83
2023/03/04 16:04:30;;;;;;;18.63;8.57;;;;;;;;;;8390965;28;20491;-81
2023/03/04 16:08:34;;;;;;;20.40;10.73;;;;;;;;;;8391325;28;20045;-83
2023/03/04 16:12:39;;;;;;;18.45;9.65;;;;;;;;;;8412163;28;20051;-80
2023/03/04 16:16:45;;;;;;;93.65;22.67;;;;;;;;;;8389700;28;20060;-81
2023/03/04 16:20:54;;;;;;;114.70;28.80;;;;;;;;;;8400860;28;20052;-82
2023/03/04 16:24:58;;;;;;;47.10;16.80;;;;;;;;;;8379271;28;20064;-81
2023/03/04 16:29:03;;;;;;;75.55;22.42;;;;;;;;;;8388981;28;20119;-81
2023/03/04 16:33:10;;;;;;;74.78;20.67;;;;;;;;;;8380084;28;20032;-80
2023/03/04 16:37:17;;;;;;;40.78;15.13;;;;;;;;;;8382039;28;20061;-80
2023/03/04 16:41:29;;;;;;;88.05;22.88;;;;;;;;;;8389888;28;20407;-80
2023/03/04 16:45:36;;;;;;;76.20;19.67;;;;;;;;;;8378800;28;20226;-80
2023/03/04 16:49:39;;;;;;;47.20;15.75;;;;;;;;;;8381544;28;20088;-80
2023/03/04 16:53:47;;;;;;;57.20;19.15;;;;;;;;;;8386829;28;20041;-80
2023/03/04 16:57:51;;;;;;;32.05;11.55;;;;;;;;;;8387287;28;20044;-82
2023/03/04 17:01:56;;;;;;;19.02;8.93;;;;;;;;;;8392203;28;20159;-82
2023/03/04 17:06:00;;;;;;;99.18;30.02;;;;;;;;;;8369100;28;20131;-80
2023/03/04 17:10:04;;;;;;;54.22;15.68;;;;;;;;;;8387750;28;20045;-83
2023/03/04 17:14:07;;;;;;;302.00;80.90;;;;;;;;;;8390983;28;20045;-78
2023/03/04 17:18:14;;;;;;;20.67;9.18;;;;;;;;;;8390197;28;20079;-84
2023/03/04 17:22:18;;;;;;;99.03;28.13;;;;;;;;;;8378024;28;20045;-81
2023/03/04 17:26:22;;;;;;;17.88;7.30;;;;;;;;;;8383078;28;20765;-84
2023/03/04 17:30:27;;;;;;;22.27;9.13;;;;;;;;;;8390366;28;20260;-82
2023/03/04 17:34:35;;;;;;;81.70;25.08;;;;;;;;;;8400279;28;20040;-82
2023/03/04 17:38:39;;;;;;;76.68;23.70;;;;;;;;;;8385983;28;20662;-81
2023/03/04 17:42:44;;;;;;;131.73;37.35;;;;;;;;;;8376171;28;20486;-82
2023/03/04 17:46:49;;;;;;;137.77;41.33;;;;;;;;;;8388706;28;20052;-82
2023/03/04 17:50:55;;;;;;;61.25;20.88;;;;;;;;;;8387301;28;20060;-82
2023/03/04 17:54:59;;;;;;;82.15;26.73;;;;;;;;;;8378900;28;20101;-87
2023/03/04 17:59:07;;;;;;;54.55;18.73;;;;;;;;;;8388493;28;20050;-83
2023/03/04 18:03:13;;;;;;;74.38;22.80;;;;;;;;;;8386569;28;20040;-80
2023/03/04 18:07:20;;;;;;;41.20;14.88;;;;;;;;;;8380571;28;20052;-80
2023/03/04 18:11:27;;;;;;;66.38;21.80;;;;;;;;;;8371445;28;20041;-79
2023/03/04 18:15:33;;;;;;;65.65;19.95;;;;;;;;;;8381640;28;20045;-80
2023/03/04 18:19:38;;;;;;;76.75;19.40;;;;;;;;;;8381592;28;20510;-80
2023/03/04 18:23:45;;;;;;;99.20;30.67;;;;;;;;;;8368384;28;20048;-81
2023/03/04 18:27:51;;;;;;;28.00;11.68;;;;;;;;;;8384380;28;20048;-81
2023/03/04 18:31:55;;;;;;;65.38;16.98;;;;;;;;;;8392052;28;20051;-81
2023/03/04 18:36:00;;;;;;;25.77;10.90;;;;;;;;;;8385868;28;20746;-80
2023/03/04 18:40:08;;;;;;;39.13;13.25;;;;;;;;;;8383708;28;20083;-80
2023/03/04 18:44:15;;;;;;;38.63;13.48;;;;;;;;;;8395791;28;20178;-83
2023/03/04 18:48:20;;;;;;;57.55;20.63;;;;;;;;;;8393229;28;20048;-80
2023/03/04 18:52:27;;;;;;;44.63;15.45;;;;;;;;;;8387149;28;20055;-90
2023/03/04 18:56:39;;;;;;;15.00;6.10;;;;;;;;;;8383449;28;20055;-82
2023/03/04 19:00:44;;;;;;;57.10;19.10;;;;;;;;;;8395515;28;20040;-80
2023/03/04 19:04:50;;;;;;;151.35;36.60;;;;;;;;;;8424259;28;20423;-79
2023/03/04 19:09:00;;;;;;;30.92;10.15;;;;;;;;;;8434798;28;20044;-79
2023/03/04 19:13:06;;;;;;;15.55;5.72;;;;;;;;;;8434640;28;20044;-82
2023/03/04 19:17:09;;;;;;;76.22;18.58;;;;;;;;;;8434576;28;20112;-79
2023/03/04 19:21:15;;;;;;;69.03;19.75;;;;;;;;;;8434504;28;20044;-80
2023/03/04 19:25:20;;;;;;;32.45;10.25;;;;;;;;;;8433949;28;20048;-78
2023/03/04 19:29:27;;;;;;;23.70;7.93;;;;;;;;;;8434261;28;20093;-78
2023/03/04 19:33:37;;;;;;;22.98;8.50;;;;;;;;;;8434106;28;20051;-78
2023/03/04 19:37:42;;;;;;;26.10;8.45;;;;;;;;;;8433729;28;20044;-80
2023/03/04 19:41:47;;;;;;;17.40;7.78;;;;;;;;;;8408536;28;20533;-79
2023/03/04 19:45:57;;;;;;;19.25;8.60;;;;;;;;;;8415102;28;20042;-77
2023/03/04 19:50:02;;;;;;;25.27;10.40;;;;;;;;;;8409256;28;20052;-78
2023/03/04 19:54:07;;;;;;;21.48;8.25;;;;;;;;;;8429231;28;20051;-76
2023/03/04 19:58:11;;;;;;;75.07;23.83;;;;;;;;;;8433175;28;20403;-78
2023/03/04 20:02:23;;;;;;;18.42;7.47;;;;;;;;;;8430412;28;20044;-77
2023/03/04 20:06:28;;;;;;;23.92;9.45;;;;;;;;;;8410928;28;20483;-76
2023/03/04 20:10:36;;;;;;;28.33;12.07;;;;;;;;;;8417384;28;20052;-85
2023/03/04 20:14:43;;;;;;;26.40;10.00;;;;;;;;;;8369081;28;20074;-80
2023/03/04 20:18:50;;;;;;;41.25;15.07;;;;;;;;;;8369504;28;20314;-80
2023/03/04 20:22:56;;;;;;;242.57;72.03;;;;;;;;;;8367364;28;20045;-80
2023/03/04 20:27:00;;;;;;;51.95;22.52;;;;;;;;;;8379719;28;20045;-89
2023/03/04 20:31:14;;;;;;;29.40;13.63;;;;;;;;;;8386704;28;20049;-81
2023/03/04 20:35:24;;;;;;;31.42;14.80;;;;;;;;;;8365996;28;20723;-79
2023/03/04 20:39:40;;;;;;;;;;;;;;;;;;8368040;28;20055;-79
2023/03/04 20:43:44;;;;;;;40.13;16.35;;;;;;;;;;8370883;28;20333;-81
2023/03/04 20:47:56;;;;;;;26.80;12.38;;;;;;;;;;8370694;28;20068;-82
2023/03/04 20:52:19;;;;;;;30.13;11.65;;;;;;;;;;8365116;28;20144;-79
2023/03/04 20:56:34;;;;;;;35.30;13.38;;;;;;;;;;8380772;28;20492;-83
2023/03/04 21:00:45;;;;;;;25.48;9.85;;;;;;;;;;8397022;28;20044;-82
2023/03/04 21:04:54;;;;;;;21.75;8.75;;;;;;;;;;8396569;28;20131;-79
2023/03/04 21:09:05;;;;;;;22.65;8.27;;;;;;;;;;8407982;28;20048;-79
2023/03/04 21:13:15;;;;;;;51.55;19.23;;;;;;;;;;8410131;28;20049;-78
2023/03/04 21:17:19;;;;;;;55.03;18.92;;;;;;;;;;8411737;28;20449;-79
2023/03/04 21:21:25;;;;;;;44.88;16.80;;;;;;;;;;8426334;28;20044;-78
2023/03/04 21:25:31;;;;;;;28.58;12.20;;;;;;;;;;8430215;28;20078;-80
2023/03/04 21:29:35;;;;;;;23.45;10.15;;;;;;;;;;8386964;28;20066;-77
2023/03/04 21:33:39;;;;;;;25.70;9.13;;;;;;;;;;8423567;28;20048;-77
2023/03/04 21:37:44;;;;;;;48.25;15.13;;;;;;;;;;8416189;28;20398;-80
2023/03/04 21:41:51;;;;;;;28.52;10.95;;;;;;;;;;8428859;28;20101;-78
2023/03/04 21:45:57;;;;;;;41.75;14.85;;;;;;;;;;8411001;28;20076;-78
2023/03/04 21:50:01;;;;;;;25.25;12.38;;;;;;;;;;8429436;28;20055;-77
2023/03/04 21:54:06;;;;;;;23.88;10.15;;;;;;;;;;8422653;28;20118;-79
2023/03/04 21:58:13;;;;;;;30.90;12.43;;;;;;;;;;8429261;28;20046;-79
2023/03/04 22:02:18;;;;;;;19.45;10.23;;;;;;;;;;8428637;28;20455;-78
2023/03/04 22:06:23;;;;;;;16.38;8.45;;;;;;;;;;8429209;28;20058;-78
2023/03/04 22:10:26;;;;;;;21.77;9.27;;;;;;;;;;8427830;28;20051;-78
2023/03/04 22:14:33;;;;;;;19.92;8.35;;;;;;;;;;8428886;28;20044;-79
2023/03/04 22:18:37;;;;;;;28.75;11.27;;;;;;;;;;8429112;28;20476;-78
2023/03/04 22:22:40;;;;;;;25.02;8.73;;;;;;;;;;8428904;28;20044;-78
2023/03/04 22:26:43;;;;;;;19.98;8.90;;;;;;;;;;8428577;28;20048;-79
2023/03/04 22:30:47;;;;;;;31.17;11.40;;;;;;;;;;8428311;28;20094;-79
2023/03/04 22:34:50;;;;;;;61.13;24.85;;;;;;;;;;8415047;28;20038;-77
2023/03/04 22:38:53;;;;;;;31.88;12.43;;;;;;;;;;8428753;28;20536;-79
2023/03/04 22:42:56;;;;;;;29.15;11.27;;;;;;;;;;8428621;28;20468;-80
2023/03/04 22:47:01;;;;;;;25.15;9.50;;;;;;;;;;8428728;28;20048;-78
2023/03/04 22:51:05;;;;;;;26.80;9.65;;;;;;;;;;8415707;28;20406;-79
2023/03/04 22:55:09;;;;;;;22.52;8.50;;;;;;;;;;8415400;28;20569;-77
2023/03/04 22:59:13;;;;;;;22.70;7.13;;;;;;;;;;8403115;28;20490;-77
2023/03/04 23:03:18;;;;;;;21.33;8.38;;;;;;;;;;8430646;28;20510;-79
2023/03/04 23:07:21;;;;;;;18.90;8.45;;;;;;;;;;8432236;28;20047;-79
2023/03/04 23:11:26;;;;;;;21.98;9.15;;;;;;;;;;8431684;28;20164;-78
2023/03/04 23:15:29;;;;;;;32.35;11.85;;;;;;;;;;8432865;28;20048;-81
2023/03/04 23:19:33;;;;;;;23.17;9.32;;;;;;;;;;8432846;28;20052;-80
2023/03/04 23:23:36;;;;;;;26.38;10.02;;;;;;;;;;8436388;28;20047;-77
2023/03/04 23:27:40;;;;;;;32.97;13.18;;;;;;;;;;8439358;28;20048;-81
2023/03/04 23:31:44;;;;;;;32.13;10.60;;;;;;;;;;8429285;28;20060;-78
2023/03/04 23:35:48;;;;;;;14.82;7.07;;;;;;;;;;8428696;28;20101;-77
2023/03/04 23:39:51;;;;;;;12.43;6.05;;;;;;;;;;8434026;28;20093;-81
2023/03/04 23:43:55;;;;;;;14.80;6.53;;;;;;;;;;8436831;28;20055;-79
2023/03/04 23:47:58;;;;;;;17.33;7.22;;;;;;;;;;8438621;28;20508;-78
2023/03/04 23:52:02;;;;;;;15.43;7.70;;;;;;;;;;8433425;28;20130;-77
2023/03/04 23:56:09;;;;;;;14.10;6.97;;;;;;;;;;8433891;28;20554;-77
